Search for airport 
image banner adimage banner adimage banner ad
image banner ad

IA20 - Loess Hills Landing

Located in Sidney, United States

ICAO - IA20, IATA -

Data provided by Airmate  

General information

Coordinates: N40°45'36" W95°42'32"
Elevation is 1180 feet MSL.
 
View others Airports in Iowa

Operational data

Special qualification required
Current time UTC:
Current local time:
Weather at : KAFK - Nebraska City Muni ( 22 km )
METAR: KAFK 181735Z AUTO 10012G16KT 10SM CLR 31/18 A2979 RMK AO2 T03120179
View NOTAMs / SUP AIP / TFR affecting this airport [VIEW]
Communications frequencies: [VIEW]

Runways:

RWY identifierQFULength (ft)Width (ft)SurfaceLDA (ft)
06186060GRASS
24186060GRASS
1790060GRASS
3590060GRASS

Airport contact information

Address: Sidney United States

Satellite view of IA20